Time;durP1;ratioP1;P1;durP2;ratioP2;P2;SDS_P1;SDS_P2;PMS_P1;PMS_P2;Temp;Humidity;BMP_temperature;BMP_pressure;BME280_temperature;BME280_humidity;BME280_pressure;Samples;Min_cycle;Max_cycle;Signal;HPM_P1;HPM_P2
2021/08/19 00:02:13;;;;;;;9.23;4.97;;;;;;;16.94;78.20;100188.44;4941699;28;20089;-82
2021/08/19 00:04:40;;;;;;;5.82;5.18;;;;;;;16.85;78.04;100195.13;4923161;28;20133;-83
2021/08/19 00:07:07;;;;;;;6.50;4.90;;;;;;;16.89;78.51;100205.53;4942791;28;20518;-82
2021/08/19 00:09:36;;;;;;;6.90;5.45;;;;;;;16.97;78.00;100191.78;4935677;29;20126;-83
2021/08/19 00:12:07;;;;;;;5.65;4.57;;;;;;;16.83;79.16;100194.34;4928022;28;20350;-82
2021/08/19 00:14:39;;;;;;;6.53;5.07;;;;;;;16.91;79.07;100191.28;4924078;28;20043;-84
2021/08/19 00:17:07;;;;;;;8.05;5.57;;;;;;;16.91;78.37;100191.28;4938019;28;20094;-82
2021/08/19 00:19:34;;;;;;;7.78;6.05;;;;;;;16.88;79.19;100200.28;4957720;28;20035;-83
2021/08/19 00:22:02;;;;;;;6.50;5.72;;;;;;;16.87;79.56;100202.09;4921906;28;20054;-83
2021/08/19 00:24:29;;;;;;;6.90;5.03;;;;;;;16.81;79.01;100191.72;4924372;28;20070;-83
2021/08/19 00:26:56;;;;;;;5.63;5.03;;;;;;;16.88;78.48;100186.94;4926351;28;20473;-82
2021/08/19 00:29:22;;;;;;;7.97;4.80;;;;;;;16.82;79.53;100189.97;4926081;28;20051;-84
2021/08/19 00:31:49;;;;;;;8.00;6.82;;;;;;;16.85;79.48;100187.97;4926193;28;20043;-83
2021/08/19 00:34:17;;;;;;;6.82;5.85;;;;;;;16.81;80.00;100197.06;4945220;28;20097;-82
2021/08/19 00:36:43;;;;;;;6.55;5.47;;;;;;;16.82;79.97;100189.97;4929976;28;20114;-82
2021/08/19 00:39:10;;;;;;;7.88;6.30;;;;;;;16.80;80.07;100183.81;4953681;28;20046;-82
2021/08/19 00:41:37;;;;;;;7.35;5.70;;;;;;;16.78;80.57;100185.72;4939057;28;20575;-81
2021/08/19 00:44:05;;;;;;;6.82;5.68;;;;;;;16.77;80.45;100178.66;4923202;28;20130;-83
2021/08/19 00:46:34;;;;;;;6.22;5.63;;;;;;;16.76;81.01;100183.13;4923155;28;20042;-81
2021/08/19 00:49:06;;;;;;;7.32;6.00;;;;;;;16.84;80.25;100182.72;4925755;28;20605;-81
2021/08/19 00:51:46;;;;;;;7.85;6.20;;;;;;;16.85;80.54;100181.78;4920582;28;20051;-83
2021/08/19 00:54:19;;;;;;;6.90;6.20;;;;;;;16.82;80.64;100184.63;4941647;28;20049;-82
2021/08/19 00:56:46;;;;;;;7.07;6.15;;;;;;;16.68;81.21;100185.31;4955311;28;20066;-84
2021/08/19 00:59:15;;;;;;;6.50;5.90;;;;;;;16.72;80.93;100186.03;4953861;28;20043;-82
2021/08/19 01:01:41;;;;;;;7.85;6.35;;;;;;;16.77;80.91;100184.84;4927845;28;20054;-83
2021/08/19 01:04:08;;;;;;;7.53;5.80;;;;;;;16.75;82.20;100191.22;4936925;28;20113;-82
2021/08/19 01:06:36;;;;;;;10.18;5.90;;;;;;;16.73;81.09;100190.41;4936879;28;20050;-81
2021/08/19 01:09:07;;;;;;;7.55;6.65;;;;;;;16.81;81.37;100188.22;4925578;28;20054;-82
2021/08/19 01:11:34;;;;;;;10.82;6.93;;;;;;;16.80;80.77;100186.50;4934544;28;20043;-81
2021/08/19 01:14:03;;;;;;;8.77;6.43;;;;;;;16.77;80.83;100190.19;4934338;28;20042;-81
2021/08/19 01:16:30;;;;;;;7.13;6.13;;;;;;;16.81;80.53;100182.88;4913386;28;20062;-82
2021/08/19 01:18:57;;;;;;;7.10;6.15;;;;;;;16.78;80.45;100189.25;4921987;28;20047;-83
2021/08/19 01:21:24;;;;;;;7.63;6.35;;;;;;;16.85;79.85;100195.97;4929176;28;20042;-82
2021/08/19 01:23:50;;;;;;;6.57;5.80;;;;;;;16.75;81.47;100193.91;4931623;28;20039;-81
2021/08/19 01:26:19;;;;;;;7.30;5.97;;;;;;;16.78;80.92;100197.25;4937465;28;20053;-82
2021/08/19 01:28:48;;;;;;;6.93;5.80;;;;;;;16.78;81.29;100194.59;4937690;28;20047;-79
2021/08/19 01:31:24;;;;;;;8.32;5.88;;;;;;;16.82;81.39;100192.63;4934610;28;20076;-80
2021/08/19 01:33:51;;;;;;;8.27;6.78;;;;;;;16.79;81.57;100198.09;4938087;28;20130;-82
2021/08/19 01:36:18;;;;;;;8.05;6.10;;;;;;;16.83;80.57;100197.88;4950238;28;20887;-82
2021/08/19 01:38:45;;;;;;;10.32;7.07;;;;;;;16.83;80.78;100197.88;4937881;28;20443;-83
2021/08/19 01:41:12;;;;;;;7.78;6.88;;;;;;;16.80;80.69;100189.16;4949213;28;20654;-80
2021/08/19 01:43:39;;;;;;;8.20;6.28;;;;;;;16.71;82.02;100187.84;4950797;28;20050;-81
2021/08/19 01:46:07;;;;;;;8.18;6.13;;;;;;;16.73;81.47;100193.09;4938254;28;20054;-82
2021/08/19 01:48:35;;;;;;;7.35;6.25;;;;;;;16.75;81.91;100185.91;4936538;28;20043;-82
2021/08/19 01:51:03;;;;;;;9.75;7.50;;;;;;;16.74;81.55;100185.03;4945431;28;20784;-84
2021/08/19 01:53:29;;;;;;;8.05;6.82;;;;;;;16.74;81.67;100193.03;4938687;28;20095;-81
2021/08/19 01:56:02;;;;;;;9.20;7.05;;;;;;;16.69;81.71;100188.88;4938076;28;20043;-82
2021/08/19 01:58:29;;;;;;;8.77;6.47;;;;;;;16.72;82.14;100186.91;4938751;28;20133;-82
2021/08/19 02:00:56;;;;;;;10.93;6.75;;;;;;;16.69;82.36;100195.06;4936839;28;20047;-82
2021/08/19 02:03:22;;;;;;;9.93;6.45;;;;;;;16.66;82.67;100197.03;4930982;28;20078;-82
2021/08/19 02:05:49;;;;;;;7.85;6.28;;;;;;;16.63;82.53;100195.34;4919985;28;20098;-81
2021/08/19 02:08:16;;;;;;;8.48;6.57;;;;;;;16.59;82.89;100191.16;4920705;29;20047;-80
2021/08/19 02:10:44;;;;;;;8.60;6.63;;;;;;;16.66;82.02;100191.69;4915565;29;20134;-81
2021/08/19 02:13:12;;;;;;;9.70;7.47;;;;;;;16.59;81.91;100184.00;4943203;28;20511;-82
2021/08/19 02:15:39;;;;;;;10.05;7.25;;;;;;;16.58;82.32;100176.94;4952480;28;20055;-80
2021/08/19 02:18:06;;;;;;;8.35;7.30;;;;;;;16.60;82.50;100177.72;4938405;28;20142;-83
2021/08/19 02:20:34;;;;;;;8.35;6.70;;;;;;;16.53;82.71;100180.78;4936365;28;20038;-81
2021/08/19 02:23:02;;;;;;;6.85;5.65;;;;;;;16.52;83.19;100173.72;4919715;28;20394;-83
2021/08/19 02:25:29;;;;;;;11.07;7.25;;;;;;;16.54;83.07;100178.03;4941297;28;20035;-82
2021/08/19 02:27:56;;;;;;;9.73;7.72;;;;;;;16.58;82.75;100170.75;4941520;28;20043;-82
2021/08/19 02:30:23;;;;;;;8.30;6.93;;;;;;;16.55;82.69;100166.41;4935414;28;20516;-83
2021/08/19 02:32:55;;;;;;;9.40;7.35;;;;;;;16.49;83.15;100171.25;4936844;28;20137;-82
2021/08/19 02:35:29;;;;;;;8.75;6.05;;;;;;;16.51;82.79;100170.22;4937385;28;20043;-82
2021/08/19 02:37:59;;;;;;;8.57;6.85;;;;;;;16.46;83.64;100180.25;4954601;28;20051;-82
2021/08/19 02:40:29;;;;;;;8.77;6.50;;;;;;;16.42;83.64;100185.84;4930629;28;20055;-83
2021/08/19 02:42:56;;;;;;;10.18;7.22;;;;;;;16.44;83.31;100182.13;4940396;28;20597;-81
2021/08/19 02:45:23;;;;;;;8.40;6.30;;;;;;;16.48;82.59;100185.50;4939782;28;20055;-83
2021/08/19 02:47:50;;;;;;;9.10;6.63;;;;;;;16.47;82.94;100189.97;4926065;28;20046;-82
2021/08/19 02:50:20;;;;;;;8.30;6.40;;;;;;;16.42;83.90;100177.84;4939364;28;20090;-81
2021/08/19 02:52:47;;;;;;;8.27;6.72;;;;;;;16.40;84.19;100190.38;4925406;28;20047;-82
2021/08/19 02:55:14;;;;;;;7.97;7.03;;;;;;;16.42;83.92;100185.84;4924289;28;20042;-82
2021/08/19 02:57:41;;;;;;;7.88;6.22;;;;;;;16.33;84.51;100188.03;4942622;28;20851;-82
2021/08/19 03:00:08;;;;;;;8.38;6.30;;;;;;;16.35;83.96;100181.75;4935911;28;20043;-82
2021/08/19 03:02:35;;;;;;;8.18;6.38;;;;;;;16.44;82.95;100187.47;4942241;28;20553;-83
2021/08/19 03:05:03;;;;;;;9.63;6.65;;;;;;;16.43;83.46;100184.88;4935560;28;20079;-82
2021/08/19 03:07:30;;;;;;;9.00;7.22;;;;;;;16.42;83.19;100173.34;4933996;28;20102;-80
2021/08/19 03:09:57;;;;;;;7.60;6.43;;;;;;;16.43;83.00;100172.41;4922674;28;20043;-82
2021/08/19 03:12:23;;;;;;;9.15;6.28;;;;;;;16.37;83.61;100170.06;4935449;28;20034;-82
2021/08/19 03:14:50;;;;;;;7.28;6.07;;;;;;;16.38;83.69;100177.13;4926857;28;20043;-82
2021/08/19 03:17:17;;;;;;;8.77;6.88;;;;;;;16.38;83.98;100181.59;4934310;28;20412;-83
2021/08/19 03:19:44;;;;;;;9.73;6.40;;;;;;;16.37;83.42;100178.06;4939325;28;20042;-79
2021/08/19 03:22:13;;;;;;;7.65;6.72;;;;;;;16.30;84.10;100171.31;4955924;28;20479;-80
2021/08/19 03:24:41;;;;;;;6.93;5.78;;;;;;;16.30;83.84;100177.50;4938721;28;20046;-81
2021/08/19 03:27:08;;;;;;;8.40;6.90;;;;;;;16.27;83.67;100169.69;4943126;28;20066;-82
2021/08/19 03:29:35;;;;;;;7.90;6.60;;;;;;;16.31;83.13;100173.03;4962648;28;20055;-84
2021/08/19 03:32:02;;;;;;;7.15;6.25;;;;;;;16.30;83.01;100174.84;4932540;28;20045;-85
2021/08/19 03:34:28;;;;;;;6.57;5.88;;;;;;;16.22;83.91;100179.72;4942750;28;20043;-85
2021/08/19 03:36:55;;;;;;;8.65;5.90;;;;;;;16.30;82.87;100179.31;4939789;29;20035;-84
2021/08/19 03:39:26;;;;;;;8.93;5.35;;;;;;;16.26;83.01;100175.09;4941040;28;20118;-83
2021/08/19 03:41:52;;;;;;;6.45;4.95;;;;;;;16.21;82.56;100177.97;4943420;28;20053;-83
2021/08/19 03:44:19;;;;;;;6.75;5.70;;;;;;;16.24;82.57;100177.84;4923430;28;20051;-84
2021/08/19 03:46:48;;;;;;;6.15;5.45;;;;;;;16.19;82.37;100179.00;4945436;28;20146;-83
2021/08/19 03:49:14;;;;;;;7.00;5.25;;;;;;;16.12;82.44;100177.59;4940030;28;20420;-83
2021/08/19 03:51:41;;;;;;;6.65;4.43;;;;;;;16.09;81.86;100185.75;4930996;28;20051;-84
2021/08/19 03:54:08;;;;;;;5.80;5.18;;;;;;;16.16;82.45;100187.19;4940667;28;20078;-83
2021/08/19 03:56:39;;;;;;;8.52;5.35;;;;;;;16.13;82.82;100190.84;4946338;28;20047;-83
2021/08/19 03:59:07;;;;;;;5.70;4.93;;;;;;;16.02;81.94;100183.41;4939256;29;20035;-84
2021/08/19 04:01:33;;;;;;;4.88;4.40;;;;;;;16.08;81.40;100184.91;4923056;28;20052;-83
2021/08/19 04:04:01;;;;;;;5.03;4.43;;;;;;;16.12;81.85;100189.13;4922077;29;20031;-82
2021/08/19 04:06:28;;;;;;;4.72;4.18;;;;;;;16.16;81.80;100187.19;4940816;28;20050;-82
2021/08/19 04:08:54;;;;;;;5.15;4.45;;;;;;;16.17;80.96;100194.22;4954157;28;20137;-82
2021/08/19 04:11:21;;;;;;;4.90;4.18;;;;;;;16.15;80.52;100188.13;4940922;28;20119;-82
2021/08/19 04:13:50;;;;;;;5.15;4.28;;;;;;;16.03;82.23;100197.59;4956684;28;20057;-82
2021/08/19 04:16:16;;;;;;;4.68;3.97;;;;;;;16.10;80.21;100193.66;4951105;28;20050;-82
2021/08/19 04:18:43;;;;;;;6.00;4.32;;;;;;;16.10;80.08;100198.13;4942283;28;20075;-83
2021/08/19 04:21:10;;;;;;;5.53;3.80;;;;;;;16.10;81.14;100198.13;4942484;28;20070;-82
2021/08/19 04:23:39;;;;;;;6.50;4.57;;;;;;;16.08;80.92;100200.03;4927448;29;20050;-83
2021/08/19 04:26:06;;;;;;;5.07;4.40;;;;;;;16.10;81.24;100199.00;4926326;28;20401;-83
2021/08/19 04:28:33;;;;;;;6.20;4.00;;;;;;;16.11;79.76;100197.19;4920393;28;20053;-82
2021/08/19 04:30:59;;;;;;;7.03;3.72;;;;;;;16.10;80.74;100204.34;4939684;28;20075;-81
2021/08/19 04:33:28;;;;;;;5.53;4.18;;;;;;;16.09;80.07;100207.06;4941918;28;20043;-81
2021/08/19 04:35:55;;;;;;;5.97;4.00;;;;;;;16.05;81.02;100219.69;4949743;28;20051;-84
2021/08/19 04:38:22;;;;;;;4.60;3.38;;;;;;;16.03;81.49;100214.44;4939639;28;20054;-82
2021/08/19 04:40:49;;;;;;;5.13;3.95;;;;;;;16.07;79.72;100225.81;4926745;28;20050;-83
2021/08/19 04:43:15;;;;;;;5.22;4.40;;;;;;;16.12;80.54;100220.22;4941191;28;20101;-83
2021/08/19 04:45:42;;;;;;;4.30;3.38;;;;;;;15.99;81.39;100226.19;4947421;28;20102;-83
2021/08/19 04:48:10;;;;;;;4.93;3.95;;;;;;;16.04;81.44;100226.81;4916217;28;20050;-84
2021/08/19 04:50:41;;;;;;;4.07;3.38;;;;;;;16.14;79.57;100229.88;4938549;29;20043;-81
2021/08/19 04:53:08;;;;;;;4.72;3.83;;;;;;;16.16;79.55;100222.69;4921960;29;20058;-81
2021/08/19 04:55:34;;;;;;;4.47;3.55;;;;;;;16.17;79.21;100235.06;4943889;28;20034;-83
2021/08/19 04:58:01;;;;;;;5.05;3.92;;;;;;;16.18;79.85;100233.25;4925860;28;20515;-84
2021/08/19 05:00:28;;;;;;;5.10;3.67;;;;;;;16.20;79.81;100231.38;4934316;29;20051;-82
2021/08/19 05:02:55;;;;;;;6.95;4.22;;;;;;;16.16;79.58;100230.69;4937193;28;20512;-83
2021/08/19 05:05:22;;;;;;;6.43;3.95;;;;;;;16.12;80.68;100229.09;4941929;28;20445;-82
2021/08/19 05:07:49;;;;;;;4.55;3.60;;;;;;;16.18;80.66;100238.59;4927354;28;20043;-82
2021/08/19 05:10:16;;;;;;;5.43;4.05;;;;;;;16.19;79.40;100234.97;4913951;29;20135;-87
2021/08/19 05:12:43;;;;;;;5.25;3.72;;;;;;;16.22;80.84;100242.81;4941030;28;20043;-84
2021/08/19 05:15:10;;;;;;;6.05;4.20;;;;;;;16.25;79.24;100237.34;4920155;28;20043;-83
2021/08/19 05:17:37;;;;;;;8.50;4.22;;;;;;;16.24;79.33;100239.16;4946216;28;20089;-82
2021/08/19 05:20:04;;;;;;;6.30;4.22;;;;;;;16.17;81.48;100242.19;4939199;28;20047;-83
2021/08/19 05:22:31;;;;;;;5.65;4.60;;;;;;;16.20;81.13;100245.56;4935606;28;20049;-82
2021/08/19 05:24:58;;;;;;;6.45;4.07;;;;;;;16.13;79.91;100246.81;4938305;28;20039;-83
2021/08/19 05:27:24;;;;;;;5.82;4.05;;;;;;;16.27;80.70;100240.78;4952310;28;20051;-84
2021/08/19 05:29:51;;;;;;;5.90;3.95;;;;;;;16.28;80.09;100250.50;4942975;28;20097;-82
2021/08/19 05:32:19;;;;;;;5.60;4.10;;;;;;;16.31;80.62;100251.25;4943469;28;20050;-83
2021/08/19 05:34:46;;;;;;;9.18;4.30;;;;;;;16.29;79.69;100250.44;4947710;28;20054;-83
2021/08/19 05:37:12;;;;;;;5.85;4.38;;;;;;;16.18;79.97;100255.44;4958251;28;20039;-85
2021/08/19 05:39:39;;;;;;;5.00;4.35;;;;;;;16.19;80.86;100249.16;4923322;29;20517;-84
2021/08/19 05:42:06;;;;;;;4.68;3.90;;;;;;;16.17;79.89;100253.72;4949009;28;20050;-85
2021/08/19 05:44:33;;;;;;;5.30;4.43;;;;;;;16.23;80.98;100255.22;4927225;28;20039;-83
2021/08/19 05:46:59;;;;;;;5.45;4.25;;;;;;;16.18;80.81;100258.09;4952727;28;20049;-85
2021/08/19 05:49:26;;;;;;;5.32;4.40;;;;;;;16.19;81.38;100251.84;4943605;28;20053;-83
2021/08/19 05:51:53;;;;;;;6.78;4.20;;;;;;;16.25;80.74;100266.66;4935063;28;20054;-82
2021/08/19 05:54:21;;;;;;;5.97;4.45;;;;;;;16.19;80.29;100258.97;4951177;28;20575;-83
2021/08/19 05:56:47;;;;;;;6.53;4.15;;;;;;;16.20;80.54;100269.56;4919770;29;20048;-82
2021/08/19 05:59:21;;;;;;;6.53;4.97;;;;;;;16.21;80.88;100268.59;4987314;28;20509;-79
2021/08/19 06:01:48;;;;;;;5.32;4.50;;;;;;;16.26;80.14;100265.72;4959615;28;20069;-82
2021/08/19 06:04:15;;;;;;;6.60;4.93;;;;;;;16.23;80.91;100263.22;4972669;28;20855;-81
2021/08/19 06:06:42;;;;;;;6.78;4.63;;;;;;;16.22;79.74;100257.00;4974830;28;20053;-81
2021/08/19 06:09:08;;;;;;;11.85;4.55;;;;;;;16.36;79.66;100268.78;4943481;28;20050;-82
2021/08/19 06:11:35;;;;;;;5.57;4.50;;;;;;;16.31;80.16;100272.56;4949566;28;20041;-82
2021/08/19 06:14:01;;;;;;;6.70;4.30;;;;;;;16.39;80.41;100274.81;4942652;28;20071;-80
2021/08/19 06:16:28;;;;;;;6.28;4.72;;;;;;;16.41;79.56;100272.97;4959826;28;20388;-83
2021/08/19 06:18:57;;;;;;;7.55;5.07;;;;;;;16.49;80.92;100264.56;4960861;28;20046;-81
2021/08/19 06:21:23;;;;;;;5.95;4.38;;;;;;;16.55;79.71;100272.22;4960085;28;20046;-82
2021/08/19 06:23:50;;;;;;;5.80;4.18;;;;;;;16.58;79.02;100269.44;4944207;28;20070;-81
2021/08/19 06:26:17;;;;;;;5.05;4.50;;;;;;;16.59;78.87;100279.16;4954630;28;20046;-81
2021/08/19 06:28:43;;;;;;;6.47;4.32;;;;;;;16.55;80.36;100277.56;4956256;28;20057;-80
2021/08/19 06:31:10;;;;;;;7.93;4.50;;;;;;;16.56;78.98;100284.63;4958528;28;20088;-79
2021/08/19 06:33:37;;;;;;;5.75;4.75;;;;;;;16.53;80.17;100282.97;4965339;28;20050;-82
2021/08/19 06:36:07;;;;;;;5.78;4.43;;;;;;;16.49;80.96;100269.91;4944811;28;20058;-81
2021/08/19 06:38:33;;;;;;;5.72;5.13;;;;;;;16.50;82.08;100279.63;4961105;28;20685;-81
2021/08/19 06:41:00;;;;;;;8.23;4.80;;;;;;;16.55;80.35;100283.75;4942495;28;20108;-80
2021/08/19 06:43:27;;;;;;;5.95;4.38;;;;;;;16.49;81.60;100278.75;4975793;28;20050;-80
2021/08/19 06:45:53;;;;;;;6.20;4.57;;;;;;;16.49;81.68;100278.75;4959451;28;20110;-80
2021/08/19 06:48:20;;;;;;;6.05;4.60;;;;;;;16.38;81.03;100282.91;4935640;28;20136;-81
2021/08/19 06:50:47;;;;;;;5.50;4.82;;;;;;;16.53;81.50;100288.31;4935150;28;20054;-82
2021/08/19 06:53:14;;;;;;;6.05;5.07;;;;;;;16.57;80.13;100283.72;4960509;28;20043;-82
2021/08/19 06:55:40;;;;;;;6.00;5.05;;;;;;;16.59;81.79;100284.47;4959715;28;20042;-81
2021/08/19 06:58:07;;;;;;;8.55;5.53;;;;;;;16.60;80.10;100284.41;4955212;28;20113;-81
2021/08/19 07:00:34;;;;;;;6.65;4.60;;;;;;;16.55;81.59;100286.44;4959352;28;20042;-82
2021/08/19 07:03:01;;;;;;;8.05;4.60;;;;;;;16.65;80.35;100293.97;4951866;28;20034;-79
2021/08/19 07:05:28;;;;;;;7.18;4.88;;;;;;;16.66;81.11;100293.03;4977245;28;20133;-83
2021/08/19 07:07:59;;;;;;;5.78;4.63;;;;;;;16.63;81.92;100291.38;4945739;28;20050;-81
2021/08/19 07:10:26;;;;;;;5.60;4.15;;;;;;;16.66;81.49;100303.72;4958767;28;20034;-80
2021/08/19 07:12:52;;;;;;;4.90;4.40;;;;;;;16.71;80.45;100291.88;4955613;28;20126;-83
2021/08/19 07:15:20;;;;;;;7.00;4.78;;;;;;;16.80;80.38;100294.06;4974936;28;20122;-82
2021/08/19 07:17:47;;;;;;;5.32;4.75;;;;;;;16.87;81.80;100295.47;4991342;28;20057;-82
2021/08/19 07:20:14;;;;;;;6.60;4.72;;;;;;;17.05;79.26;100296.31;4955775;28;20039;-81
2021/08/19 07:22:45;;;;;;;6.63;5.18;;;;;;;17.08;78.96;100305.97;4959135;28;20042;-80
2021/08/19 07:25:13;;;;;;;5.05;4.00;;;;;;;17.15;79.35;100304.69;4973579;28;20069;-81
2021/08/19 07:27:40;;;;;;;7.00;5.55;;;;;;;17.02;77.71;100301.81;4960542;28;20046;-81
2021/08/19 07:30:07;;;;;;;5.63;4.75;;;;;;;17.13;78.99;100299.44;4958186;28;20058;-81
2021/08/19 07:32:34;;;;;;;6.47;4.88;;;;;;;17.21;78.15;100301.69;4970980;28;20042;-79
2021/08/19 07:35:02;;;;;;;7.20;4.70;;;;;;;17.21;78.95;100299.03;4958592;28;20045;-81
2021/08/19 07:37:29;;;;;;;7.38;4.35;;;;;;;17.28;78.90;100307.56;4940344;28;20054;-80
2021/08/19 07:39:56;;;;;;;5.82;4.40;;;;;;;17.30;77.99;100308.34;4971285;28;20038;-80
2021/08/19 07:42:23;;;;;;;6.43;4.13;;;;;;;17.35;78.81;100307.16;4942796;28;20042;-80
2021/08/19 07:44:49;;;;;;;5.78;4.20;;;;;;;17.47;78.80;100305.63;4958281;28;20566;-83
2021/08/19 07:47:16;;;;;;;6.50;5.28;;;;;;;17.42;76.95;100311.22;4946072;28;20053;-81
2021/08/19 07:49:43;;;;;;;5.25;3.90;;;;;;;17.42;78.23;100307.72;4955522;28;20057;-82
2021/08/19 07:52:10;;;;;;;5.55;4.63;;;;;;;17.52;77.19;100310.72;4965472;28;20043;-81
2021/08/19 07:54:37;;;;;;;5.93;4.55;;;;;;;17.59;76.88;100323.66;4935489;28;20657;-79
2021/08/19 07:57:04;;;;;;;6.53;4.70;;;;;;;17.67;75.89;100315.25;4968982;28;20077;-80
2021/08/19 07:59:30;;;;;;;5.95;4.60;;;;;;;17.63;75.84;100314.53;4972083;28;20054;-82
2021/08/19 08:02:17;;;;;;;6.22;4.03;;;;;;;17.57;75.69;100322.00;4947990;28;20046;-80
2021/08/19 08:04:44;;;;;;;5.30;4.50;;;;;;;17.61;74.47;100321.78;4943448;28;20097;-84
2021/08/19 08:07:11;;;;;;;4.60;3.85;;;;;;;17.57;75.56;100327.34;4948009;28;20046;-81
2021/08/19 08:09:37;;;;;;;4.30;3.63;;;;;;;17.49;75.93;100327.78;4962042;28;20049;-82
2021/08/19 08:12:04;;;;;;;6.35;4.10;;;;;;;17.36;76.47;100332.91;4978132;28;20046;-82
2021/08/19 08:14:31;;;;;;;5.38;4.13;;;;;;;17.46;76.17;100325.28;4993667;28;20038;-80
2021/08/19 08:16:58;;;;;;;4.65;4.07;;;;;;;17.42;75.36;100332.59;4961850;28;20499;-80
2021/08/19 08:19:25;;;;;;;5.93;4.20;;;;;;;17.54;77.65;100331.06;4975433;28;20046;-81
2021/08/19 08:21:51;;;;;;;9.23;4.40;;;;;;;17.42;75.41;100337.09;4945403;28;20046;-81
2021/08/19 08:24:18;;;;;;;5.65;4.07;;;;;;;17.62;76.87;100338.66;4949040;28;20608;-81
2021/08/19 08:26:44;;;;;;;9.27;7.05;;;;;;;17.79;77.55;100341.28;4945178;28;20459;-81
2021/08/19 08:29:13;;;;;;;4.68;4.18;;;;;;;17.88;74.73;100337.25;4943176;28;20058;-81
2021/08/19 08:31:40;;;;;;;5.82;4.18;;;;;;;18.00;72.85;100341.94;4959160;28;20053;-81
2021/08/19 08:34:07;;;;;;;7.18;5.00;;;;;;;18.07;73.75;100350.44;4943676;28;21479;-82
2021/08/19 08:36:35;;;;;;;6.68;4.95;;;;;;;18.02;72.74;100347.19;4960745;28;20154;-80
2021/08/19 08:39:04;;;;;;;5.70;4.40;;;;;;;18.17;72.49;100349.00;4938186;28;20503;-80
2021/08/19 08:41:38;;;;;;;5.13;4.07;;;;;;;18.22;73.33;100352.25;4977485;28;20046;-81
2021/08/19 08:44:04;;;;;;;4.82;3.67;;;;;;;18.08;72.31;100358.41;4932393;28;20049;-82
2021/08/19 08:46:34;;;;;;;4.53;3.78;;;;;;;18.11;74.26;100360.88;4968553;28;20047;-83
2021/08/19 08:49:02;;;;;;;3.92;3.53;;;;;;;18.11;73.26;100362.69;4962464;28;20042;-83
2021/08/19 08:51:30;;;;;;;4.78;3.60;;;;;;;18.13;74.12;100363.47;4949854;28;20488;-81
2021/08/19 08:53:56;;;;;;;4.20;3.55;;;;;;;18.20;75.74;100365.72;4947041;28;20057;-80
2021/08/19 08:56:24;;;;;;;3.38;3.08;;;;;;;18.34;74.25;100364.94;4960053;28;20045;-82
2021/08/19 08:58:51;;;;;;;4.35;3.28;;;;;;;18.45;74.02;100373.19;4941168;28;20053;-82
2021/08/19 09:01:18;;;;;;;3.30;2.80;;;;;;;18.40;70.02;100371.72;4941504;28;20451;-84
2021/08/19 09:03:45;;;;;;;4.45;3.28;;;;;;;18.46;72.79;100374.91;4942831;28;20562;-80
2021/08/19 09:06:11;;;;;;;5.63;3.08;;;;;;;18.61;72.70;100380.34;4971862;28;20041;-81
2021/08/19 09:08:39;;;;;;;3.80;3.35;;;;;;;18.72;71.21;100375.25;4943044;28;20038;-82
2021/08/19 09:11:06;;;;;;;4.18;3.33;;;;;;;18.83;69.71;100378.13;4958914;28;20042;-81
2021/08/19 09:13:33;;;;;;;3.92;3.53;;;;;;;18.98;70.60;100379.91;4958394;28;20042;-80
2021/08/19 09:16:32;;;;;;;4.00;3.60;;;;;;;19.00;69.29;100379.81;4940828;28;20512;-82
2021/08/19 09:19:09;;;;;;;5.45;3.45;;;;;;;19.04;68.67;100387.59;4925411;28;20061;-81
2021/08/19 09:21:45;;;;;;;4.28;3.30;;;;;;;19.08;67.52;100385.56;4958175;28;20162;-82
2021/08/19 09:24:15;;;;;;;6.95;3.42;;;;;;;19.20;66.74;100392.03;4956542;28;20052;-82
2021/08/19 09:26:42;;;;;;;5.35;3.10;;;;;;;19.34;68.67;100384.88;4943853;28;20065;-82
2021/08/19 09:29:29;;;;;;;4.63;3.50;;;;;;;19.38;68.79;100386.41;4953052;28;20052;-81
2021/08/19 09:32:07;;;;;;;4.70;3.50;;;;;;;19.51;69.81;100386.53;4956785;28;20137;-81
2021/08/19 09:34:34;;;;;;;4.72;3.42;;;;;;;19.66;67.06;100380.22;4982636;28;20047;-80
2021/08/19 09:37:02;;;;;;;5.88;3.85;;;;;;;19.87;66.83;100380.72;4957006;28;20120;-81
2021/08/19 09:39:43;;;;;;;5.30;3.53;;;;;;;20.07;66.36;100389.28;4970505;28;20049;-80
2021/08/19 09:42:11;;;;;;;4.40;3.30;;;;;;;20.13;66.03;100386.22;4963853;28;20042;-80
2021/08/19 09:44:42;;;;;;;4.22;3.15;;;;;;;19.90;62.84;100380.50;4946872;28;20447;-80
2021/08/19 09:47:33;;;;;;;4.50;3.72;;;;;;;19.84;66.15;100390.75;4986705;28;20046;-78
2021/08/19 09:50:20;;;;;;;4.50;3.35;;;;;;;19.72;66.68;100389.72;4945375;28;20376;-79
2021/08/19 09:52:49;;;;;;;4.22;3.20;;;;;;;19.62;66.33;100394.78;4935505;28;20058;-78
2021/08/19 09:55:20;;;;;;;3.65;3.10;;;;;;;19.51;65.85;100386.53;4944100;28;20270;-80
2021/08/19 09:57:48;;;;;;;3.83;3.08;;;;;;;19.50;66.98;100390.13;4998237;28;20050;-79
2021/08/19 10:00:27;;;;;;;4.22;2.90;;;;;;;19.46;65.78;100388.63;4963901;28;20042;-79
2021/08/19 10:02:55;;;;;;;3.55;3.20;;;;;;;19.36;66.51;100392.81;4981969;28;20050;-78
2021/08/19 10:05:22;;;;;;;4.68;3.53;;;;;;;19.27;67.16;100388.03;4966709;28;20410;-79
2021/08/19 10:07:48;;;;;;;4.60;3.50;;;;;;;19.26;68.18;100389.84;4980609;28;20046;-79
2021/08/19 10:10:16;;;;;;;3.70;3.22;;;;;;;19.18;66.45;100385.91;4948023;28;20072;-78
2021/08/19 10:12:44;;;;;;;4.03;3.47;;;;;;;19.03;68.47;100393.91;4946685;28;20082;-77
2021/08/19 10:15:12;;;;;;;3.83;3.42;;;;;;;19.02;68.21;100396.69;4978075;28;20050;-80
2021/08/19 10:17:41;;;;;;;4.32;3.20;;;;;;;19.10;68.19;100384.56;4961146;28;20057;-79
2021/08/19 10:20:11;;;;;;;4.72;3.22;;;;;;;19.23;68.07;100394.50;4977206;28;20042;-78
2021/08/19 10:22:38;;;;;;;4.57;3.55;;;;;;;19.23;67.48;100390.00;4962386;28;20046;-79
2021/08/19 10:25:06;;;;;;;4.30;3.10;;;;;;;19.12;69.72;100409.41;4958926;28;20045;-79
2021/08/19 10:27:33;;;;;;;6.05;4.28;;;;;;;18.79;74.72;100406.06;4963947;28;20705;-79
2021/08/19 10:30:05;;;;;;;4.15;3.53;;;;;;;18.52;77.48;100406.69;4946356;28;20042;-79
2021/08/19 10:32:41;;;;;;;4.90;3.88;;;;;;;18.36;80.50;100410.31;4967507;28;20043;-80
2021/08/19 10:35:12;;;;;;;4.45;3.50;;;;;;;18.11;83.01;100427.72;4941616;28;20054;-78
2021/08/19 10:37:48;;;;;;;5.00;3.80;;;;;;;17.91;86.41;100419.94;4977529;28;20054;-81
2021/08/19 10:40:36;;;;;;;4.95;3.45;;;;;;;17.58;85.06;100430.63;4991550;28;20459;-79
2021/08/19 10:43:35;;;;;;;5.50;4.82;;;;;;;17.40;89.49;100430.63;4953695;28;20097;-78
2021/08/19 10:46:14;;;;;;;5.30;3.88;;;;;;;17.34;89.54;100435.44;4991244;28;20526;-79
2021/08/19 10:48:52;;;;;;;5.25;3.83;;;;;;;16.97;90.04;100436.44;4961323;28;20046;-78
2021/08/19 10:51:19;;;;;;;5.72;3.50;;;;;;;16.93;91.52;100441.06;4960105;28;20051;-78
2021/08/19 10:53:46;;;;;;;5.25;3.72;;;;;;;16.92;92.11;100438.47;4961371;28;20049;-80
2021/08/19 10:56:21;;;;;;;5.20;3.50;;;;;;;16.83;91.16;100438.00;4948584;28;20049;-78
2021/08/19 10:58:48;;;;;;;4.47;2.95;;;;;;;16.78;91.38;100440.03;4977579;28;20054;-80
2021/08/19 11:01:14;;;;;;;4.75;3.00;;;;;;;17.01;93.51;100446.03;4961688;28;20055;-80
2021/08/19 11:03:44;;;;;;;5.43;3.20;;;;;;;17.18;92.91;100438.03;4954182;28;20046;-79
2021/08/19 11:06:24;;;;;;;3.85;2.80;;;;;;;17.44;92.04;100439.34;4974741;28;20047;-79
2021/08/19 11:08:55;;;;;;;3.63;3.10;;;;;;;17.63;92.58;100440.09;4979023;28;20038;-78
2021/08/19 11:11:34;;;;;;;4.40;2.90;;;;;;;17.94;92.64;100441.16;4939599;28;20063;-78
2021/08/19 11:14:08;;;;;;;3.72;3.03;;;;;;;18.20;90.31;100431.69;4958375;28;20061;-79
2021/08/19 11:16:37;;;;;;;4.93;3.00;;;;;;;17.98;87.95;100430.19;4958122;28;20217;-78
2021/08/19 11:19:19;;;;;;;4.95;3.70;;;;;;;18.19;89.23;100416.59;4996555;28;20117;-78
2021/08/19 11:21:51;;;;;;;5.25;3.40;;;;;;;18.51;88.54;100421.00;4973021;28;20042;-78
2021/08/19 11:24:19;;;;;;;3.47;2.88;;;;;;;18.68;83.34;100421.88;4955490;28;20109;-78
2021/08/19 11:27:00;;;;;;;5.20;3.42;;;;;;;18.87;81.09;100425.22;4944843;28;20035;-78
2021/08/19 11:29:28;;;;;;;5.63;3.55;;;;;;;18.92;80.14;100422.25;4968172;28;20050;-79
2021/08/19 11:31:55;;;;;;;4.30;3.15;;;;;;;18.79;78.44;100428.31;4978734;28;20431;-80